Time;durP1;ratioP1;P1;durP2;ratioP2;P2;SDS_P1;SDS_P2;PMS_P1;PMS_P2;Temp;Humidity;BMP_temperature;BMP_pressure;BME280_temperature;BME280_humidity;BME280_pressure;Samples;Min_cycle;Max_cycle;Signal;HPM_P1;HPM_P2
2023/08/15 00:00:12;;;;;;;5.47;1.10;;;;;;;-142.75;100.00;75782.97;5068171;28;20419;-66
2023/08/15 00:02:38;;;;;;;5.93;1.60;;;;;;;-142.75;100.00;75784.94;5067850;28;20028;-66
2023/08/15 00:05:04;;;;;;;7.13;1.63;;;;;;;-142.75;100.00;75781.00;5067375;28;20095;-65
2023/08/15 00:07:29;;;;;;;4.15;1.48;;;;;;;-142.75;100.00;75786.91;5066223;28;20484;-66
2023/08/15 00:09:54;;;;;;;5.60;1.90;;;;;;;-142.75;100.00;75798.72;5068444;28;20059;-66
2023/08/15 00:12:20;;;;;;;6.57;1.80;;;;;;;-142.75;100.00;75814.47;5067669;28;20024;-65
2023/08/15 00:14:45;;;;;;;5.57;2.03;;;;;;;-142.75;100.00;75798.72;5067110;28;20468;-65
2023/08/15 00:17:11;;;;;;;6.45;1.55;;;;;;;-142.75;100.00;75794.78;5067562;28;20559;-66
2023/08/15 00:19:37;;;;;;;5.20;1.70;;;;;;;-142.75;100.00;75792.81;5075278;28;20563;-66
2023/08/15 00:22:02;;;;;;;10.27;2.00;;;;;;;-142.75;100.00;75779.03;5087416;28;20110;-65
2023/08/15 00:24:28;;;;;;;4.95;1.90;;;;;;;-142.75;100.00;75775.09;5085929;28;20491;-66
2023/08/15 00:26:53;;;;;;;4.88;1.48;;;;;;;-142.75;100.00;75775.09;5087245;28;20028;-66
2023/08/15 00:29:18;;;;;;;5.35;2.22;;;;;;;-142.75;100.00;75777.06;5087088;28;20132;-66
2023/08/15 00:31:44;;;;;;;5.22;1.75;;;;;;;-142.75;100.00;75775.09;5087686;28;20047;-66
2023/08/15 00:34:09;;;;;;;7.93;1.83;;;;;;;-142.75;100.00;75792.81;5086753;28;20055;-66
2023/08/15 00:36:35;;;;;;;5.03;1.52;;;;;;;-142.75;100.00;75800.69;5087310;28;20059;-66
2023/08/15 00:39:02;;;;;;;9.63;1.92;;;;;;;-142.75;100.00;75804.63;5087344;28;20024;-66
2023/08/15 00:41:30;;;;;;;5.07;1.20;;;;;;;-142.75;100.00;75814.47;5087293;28;20032;-65
2023/08/15 00:43:58;;;;;;;4.57;1.60;;;;;;;-142.75;100.00;75808.56;5086698;28;20070;-66
2023/08/15 00:46:25;;;;;;;6.32;1.80;;;;;;;-142.75;100.00;75812.50;5086976;28;20317;-65
2023/08/15 00:48:52;;;;;;;3.85;1.08;;;;;;;-142.75;100.00;75808.56;5086757;28;20152;-65
2023/08/15 00:51:18;;;;;;;6.57;1.50;;;;;;;-142.75;100.00;75814.47;5086939;28;20110;-66
2023/08/15 00:53:44;;;;;;;6.90;1.58;;;;;;;-142.75;100.00;75812.50;5086522;28;20030;-65
2023/08/15 00:56:10;;;;;;;6.45;1.33;;;;;;;-142.75;100.00;75798.72;5087345;28;20069;-65
2023/08/15 00:58:36;;;;;;;6.30;1.63;;;;;;;-142.75;100.00;75782.97;5086634;28;20449;-65
2023/08/15 01:01:02;;;;;;;4.25;1.25;;;;;;;-142.75;100.00;75779.03;5087095;28;20592;-65
2023/08/15 01:03:28;;;;;;;8.23;1.70;;;;;;;-142.75;100.00;75781.00;5086012;28;20028;-66
2023/08/15 01:05:55;;;;;;;4.30;1.42;;;;;;;-142.75;100.00;75788.88;5085238;28;20028;-66
2023/08/15 01:08:20;;;;;;;7.13;1.80;;;;;;;-142.75;100.00;75782.97;5086316;28;20032;-65
2023/08/15 01:10:46;;;;;;;7.15;1.48;;;;;;;-142.75;100.00;75779.03;5087338;28;20024;-65
2023/08/15 01:13:21;;;;;;;6.95;1.50;;;;;;;-142.75;100.00;75767.22;5086003;28;20530;-65
2023/08/15 01:15:50;;;;;;;6.70;1.65;;;;;;;-142.75;100.00;75773.13;5086529;28;20058;-66
2023/08/15 01:18:19;;;;;;;7.22;1.70;;;;;;;-142.75;100.00;75779.03;5086356;28;20018;-66
2023/08/15 01:20:47;;;;;;;9.45;1.58;;;;;;;-142.75;100.00;75777.06;5086614;28;20116;-65
2023/08/15 01:23:14;;;;;;;7.35;1.38;;;;;;;-142.75;100.00;75782.97;5086260;28;20027;-65
2023/08/15 01:25:41;;;;;;;7.32;2.15;;;;;;;-142.75;100.00;75782.97;5085979;28;20040;-65
2023/08/15 01:28:13;;;;;;;7.03;1.40;;;;;;;-142.75;100.00;75771.16;5085846;28;20020;-66
2023/08/15 01:31:08;;;;;;;9.98;1.90;;;;;;;-142.75;100.00;75767.22;5086365;28;20051;-65
2023/08/15 01:33:39;;;;;;;7.65;1.70;;;;;;;-142.75;100.00;75765.25;5086026;28;20508;-66
2023/08/15 01:36:22;;;;;;;7.82;1.90;;;;;;;-142.75;100.00;75767.22;5086020;28;20081;-65
2023/08/15 01:38:55;;;;;;;6.00;1.33;;;;;;;-142.75;100.00;75759.38;5085793;28;20016;-65
2023/08/15 01:41:23;;;;;;;8.30;1.52;;;;;;;-142.75;100.00;75761.34;5066162;28;20633;-66
2023/08/15 01:43:51;;;;;;;10.32;2.08;;;;;;;-142.75;100.00;75751.50;5065312;28;20063;-65
2023/08/15 01:46:17;;;;;;;9.02;1.85;;;;;;;-142.75;100.00;75759.38;5065765;28;20162;-65
2023/08/15 01:48:42;;;;;;;12.52;1.60;;;;;;;-142.75;100.00;75747.56;5065555;28;20024;-66
2023/08/15 01:51:08;;;;;;;9.27;1.60;;;;;;;-142.75;100.00;75755.44;5065791;28;20082;-66
2023/08/15 01:53:35;;;;;;;8.30;2.00;;;;;;;-142.75;100.00;75755.44;5065633;28;20020;-65
2023/08/15 01:56:01;;;;;;;3.97;1.55;;;;;;;-142.75;100.00;75767.22;5066140;28;20047;-66
2023/08/15 01:58:26;;;;;;;6.68;1.40;;;;;;;-142.75;100.00;75755.44;5065710;28;20012;-66
2023/08/15 02:00:51;;;;;;;10.00;1.70;;;;;;;-142.75;100.00;75751.50;5066103;28;20024;-66
2023/08/15 02:03:17;;;;;;;10.52;2.17;;;;;;;-142.75;100.00;75753.47;5065404;28;20017;-66
2023/08/15 02:05:42;;;;;;;10.38;1.98;;;;;;;-142.75;100.00;75769.19;5065632;28;20024;-66
2023/08/15 02:08:08;;;;;;;7.95;2.50;;;;;;;-142.75;100.00;75755.44;5065135;28;20017;-65
2023/08/15 02:10:33;;;;;;;7.82;1.63;;;;;;;-142.75;100.00;75763.28;5064649;28;20032;-66
2023/08/15 02:12:58;;;;;;;6.05;1.75;;;;;;;-142.75;100.00;75761.34;5063829;28;20021;-65
2023/08/15 02:15:24;;;;;;;9.55;1.65;;;;;;;-142.75;100.00;75753.47;5065289;28;20027;-65
2023/08/15 02:17:49;;;;;;;7.88;1.75;;;;;;;-142.75;100.00;75751.50;5065422;28;20009;-65
2023/08/15 02:20:15;;;;;;;8.00;2.17;;;;;;;-142.75;100.00;75739.69;5065144;28;20028;-65
2023/08/15 02:22:40;;;;;;;14.18;2.00;;;;;;;-142.75;100.00;75739.69;5065215;28;21398;-65
2023/08/15 02:25:06;;;;;;;10.65;1.85;;;;;;;-142.75;100.00;75735.75;5065072;28;20508;-65
2023/08/15 02:27:31;;;;;;;5.00;1.50;;;;;;;-142.75;100.00;75731.81;5065586;28;20104;-65
2023/08/15 02:29:56;;;;;;;6.22;1.60;;;;;;;-142.75;100.00;75737.72;5078545;28;20028;-65
2023/08/15 02:32:22;;;;;;;6.85;2.03;;;;;;;-142.75;100.00;75743.63;5085565;28;20024;-65
2023/08/15 02:34:47;;;;;;;7.35;1.80;;;;;;;-142.75;100.00;75735.75;5085332;28;20073;-65
2023/08/15 02:37:13;;;;;;;6.50;1.40;;;;;;;-142.75;100.00;75739.69;5085109;28;20429;-66
2023/08/15 02:39:38;;;;;;;10.88;2.03;;;;;;;-142.75;100.00;75737.72;5085815;28;20479;-65
2023/08/15 02:42:04;;;;;;;6.78;2.03;;;;;;;-142.75;100.00;75745.59;5085266;28;20056;-65
2023/08/15 02:44:29;;;;;;;11.27;2.10;;;;;;;-142.75;100.00;75747.56;5084747;28;20553;-65
2023/08/15 02:46:55;;;;;;;8.55;1.92;;;;;;;-142.75;100.00;75745.59;5085115;28;20494;-65
2023/08/15 02:49:20;;;;;;;8.05;1.90;;;;;;;-142.75;100.00;75743.63;5084984;28;20020;-66
2023/08/15 02:51:45;;;;;;;6.93;1.95;;;;;;;-142.75;100.00;75757.41;5084911;28;20028;-66
2023/08/15 02:54:11;;;;;;;8.63;1.90;;;;;;;-142.75;100.00;75751.50;5084963;28;20022;-65
2023/08/15 02:56:36;;;;;;;7.30;1.80;;;;;;;-142.75;100.00;75747.56;5084988;28;20043;-66
2023/08/15 02:59:02;;;;;;;6.88;1.52;;;;;;;-142.75;100.00;75749.53;5084920;28;20020;-65
2023/08/15 03:01:27;;;;;;;13.13;2.03;;;;;;;-142.75;100.00;75759.38;5085348;28;20026;-65
2023/08/15 03:03:52;;;;;;;6.30;1.55;;;;;;;-142.75;100.00;75757.41;5084673;28;20023;-65
2023/08/15 03:06:18;;;;;;;9.20;1.75;;;;;;;-142.75;100.00;75747.56;5084881;28;20053;-65
2023/08/15 03:08:45;;;;;;;8.52;1.80;;;;;;;-142.75;100.00;75751.50;5084418;28;20055;-65
2023/08/15 03:11:10;;;;;;;11.93;2.20;;;;;;;-142.75;100.00;75741.66;5085864;28;20495;-65
2023/08/15 03:13:35;;;;;;;9.30;1.90;;;;;;;-142.75;100.00;75749.53;5084663;28;20026;-66
2023/08/15 03:16:01;;;;;;;7.03;2.35;;;;;;;-142.75;100.00;75759.38;5084789;28;20235;-65
2023/08/15 03:18:26;;;;;;;5.07;1.40;;;;;;;-142.75;100.00;75757.41;5084688;28;20024;-65
2023/08/15 03:20:59;;;;;;;8.73;1.88;;;;;;;-142.75;100.00;75763.28;5084797;28;20028;-65
2023/08/15 03:23:24;;;;;;;8.30;1.83;;;;;;;-142.75;100.00;75769.19;5084473;28;20406;-65
2023/08/15 03:25:54;;;;;;;8.23;1.98;;;;;;;-142.75;100.00;75763.28;5084680;28;20030;-66
2023/08/15 03:28:20;;;;;;;9.63;1.88;;;;;;;-142.75;100.00;75765.25;5084487;28;20035;-65
2023/08/15 03:30:45;;;;;;;11.45;1.77;;;;;;;-142.75;100.00;75767.22;5084972;28;20032;-65
2023/08/15 03:33:10;;;;;;;6.63;2.03;;;;;;;-142.75;100.00;75779.03;5084382;28;20036;-65
2023/08/15 03:35:36;;;;;;;7.93;1.50;;;;;;;-142.75;100.00;75775.09;5084404;28;20036;-65
2023/08/15 03:38:01;;;;;;;10.02;2.00;;;;;;;-142.75;100.00;75777.06;5084651;28;20032;-65
2023/08/15 03:40:26;;;;;;;8.35;1.95;;;;;;;-142.75;100.00;75792.81;5085233;28;20099;-65
2023/08/15 03:42:52;;;;;;;10.25;1.98;;;;;;;-142.75;100.00;75784.94;5084432;28;20071;-65
2023/08/15 03:45:17;;;;;;;7.32;1.98;;;;;;;-142.75;100.00;75784.94;5084834;28;20056;-65
2023/08/15 03:47:42;;;;;;;8.55;1.80;;;;;;;-142.75;100.00;75800.69;5084081;28;20055;-65
2023/08/15 03:50:08;;;;;;;5.00;1.30;;;;;;;-142.75;100.00;75814.47;5086283;28;20560;-65
2023/08/15 03:52:35;;;;;;;7.10;1.50;;;;;;;-142.75;100.00;75810.53;5088368;28;20039;-65
2023/08/15 03:55:01;;;;;;;7.07;1.80;;;;;;;-142.75;100.00;75818.41;5087924;28;20027;-65
2023/08/15 03:57:26;;;;;;;9.30;1.67;;;;;;;-142.75;100.00;75818.41;5087913;28;20024;-65
2023/08/15 03:59:51;;;;;;;9.95;2.15;;;;;;;-142.75;100.00;75838.09;5087750;28;20023;-65
2023/08/15 04:02:17;;;;;;;5.70;2.20;;;;;;;-142.75;100.00;75834.16;5088306;28;20024;-65
2023/08/15 04:04:42;;;;;;;6.88;1.73;;;;;;;-142.75;100.00;75822.34;5087194;28;20159;-65
2023/08/15 04:07:07;;;;;;;10.48;3.08;;;;;;;-142.75;100.00;75830.22;5087256;28;20031;-66
2023/08/15 04:09:33;;;;;;;8.30;2.08;;;;;;;-142.75;100.00;75812.50;5087946;28;20024;-65
2023/08/15 04:11:58;;;;;;;5.70;2.20;;;;;;;-142.75;100.00;75818.41;5087886;28;20020;-66
2023/08/15 04:14:23;;;;;;;10.30;2.33;;;;;;;-142.75;100.00;75816.44;5087389;28;20084;-65
2023/08/15 04:16:49;;;;;;;8.98;2.58;;;;;;;-142.75;100.00;75804.63;5087648;28;20092;-65
2023/08/15 04:19:14;;;;;;;9.80;2.47;;;;;;;-142.75;100.00;75804.63;5087772;28;20054;-65
2023/08/15 04:21:39;;;;;;;7.40;2.38;;;;;;;-142.75;100.00;75810.53;5087554;28;20020;-65
2023/08/15 04:24:05;;;;;;;6.93;1.85;;;;;;;-142.75;100.00;75812.50;5086642;28;20521;-65
2023/08/15 04:26:30;;;;;;;7.15;2.00;;;;;;;-142.75;100.00;75814.47;5087331;28;20402;-65
2023/08/15 04:28:56;;;;;;;8.38;1.80;;;;;;;-142.75;100.00;75802.66;5087038;28;20027;-65
2023/08/15 04:31:21;;;;;;;11.32;2.25;;;;;;;-142.75;100.00;75822.34;5087745;28;20039;-65
2023/08/15 04:33:46;;;;;;;9.38;1.88;;;;;;;-142.75;100.00;75822.34;5086985;28;20020;-65
2023/08/15 04:36:12;;;;;;;11.15;2.47;;;;;;;-142.75;100.00;75820.38;5087172;28;20433;-65
2023/08/15 04:38:39;;;;;;;7.15;2.03;;;;;;;-142.75;100.00;75820.38;5087129;28;20388;-65
2023/08/15 04:41:05;;;;;;;13.48;2.40;;;;;;;-142.75;100.00;75828.25;5087624;28;20072;-65
2023/08/15 04:43:31;;;;;;;8.57;2.38;;;;;;;-142.75;100.00;75828.25;5086672;28;20428;-65
2023/08/15 04:45:56;;;;;;;8.38;2.38;;;;;;;-142.75;100.00;75822.34;5069048;28;20185;-65
2023/08/15 04:48:22;;;;;;;8.43;2.42;;;;;;;-142.75;100.00;75830.22;5066877;28;20081;-65
2023/08/15 04:50:48;;;;;;;6.85;1.65;;;;;;;-142.75;100.00;75838.09;5066698;28;20047;-65
2023/08/15 04:53:13;;;;;;;9.10;2.78;;;;;;;-142.75;100.00;75826.28;5066967;28;20484;-65
2023/08/15 04:55:38;;;;;;;9.63;2.38;;;;;;;-142.75;100.00;75840.06;5067001;28;20077;-65
2023/08/15 04:58:04;;;;;;;10.70;2.17;;;;;;;-142.75;100.00;75828.25;5066853;28;20016;-65
2023/08/15 05:00:29;;;;;;;7.00;1.83;;;;;;;-142.75;100.00;75838.09;5078667;28;20020;-65
2023/08/15 05:02:55;;;;;;;5.90;1.88;;;;;;;-142.75;100.00;75838.09;5072296;28;20024;-66
2023/08/15 05:05:20;;;;;;;8.60;2.00;;;;;;;-142.75;100.00;75834.16;5066276;28;20492;-65
2023/08/15 05:07:45;;;;;;;7.93;2.20;;;;;;;-142.75;100.00;75838.09;5066380;28;20056;-65
2023/08/15 05:10:10;;;;;;;9.88;2.13;;;;;;;-142.75;100.00;75834.16;5067152;28;20044;-65
2023/08/15 05:12:36;;;;;;;7.07;2.35;;;;;;;-142.75;100.00;75830.22;5066290;28;20028;-65
2023/08/15 05:15:02;;;;;;;5.65;2.10;;;;;;;-142.75;100.00;75826.28;5066456;28;20032;-65
2023/08/15 05:17:27;;;;;;;7.28;2.15;;;;;;;-142.75;100.00;75822.34;5066350;28;20086;-66
2023/08/15 05:19:53;;;;;;;9.18;2.63;;;;;;;-142.75;100.00;75818.41;5064852;28;20036;-65
2023/08/15 05:22:18;;;;;;;11.93;2.25;;;;;;;-142.75;100.00;75808.56;5066469;28;20063;-65
2023/08/15 05:24:43;;;;;;;6.22;2.08;;;;;;;-142.75;100.00;75808.56;5065899;28;20028;-65
2023/08/15 05:27:12;;;;;;;8.35;1.92;;;;;;;-142.75;100.00;75820.38;5065713;28;20032;-65
2023/08/15 05:29:37;;;;;;;7.80;2.60;;;;;;;-142.75;100.00;75818.41;5066064;28;20388;-66
2023/08/15 05:32:04;;;;;;;9.27;2.40;;;;;;;-142.75;100.00;75816.44;5066812;28;20028;-66
2023/08/15 05:34:30;;;;;;;8.70;2.25;;;;;;;-142.75;100.00;75828.25;5065815;28;20056;-65
2023/08/15 05:36:55;;;;;;;7.43;2.30;;;;;;;-142.75;100.00;75824.31;5068119;28;20546;-65
2023/08/15 05:39:20;;;;;;;8.88;2.17;;;;;;;-142.75;100.00;75820.38;5085834;28;20391;-65
2023/08/15 05:41:45;;;;;;;10.82;2.30;;;;;;;-142.75;100.00;75812.50;5086493;28;20551;-66
2023/08/15 05:44:11;;;;;;;9.27;1.98;;;;;;;-142.75;100.00;75800.69;5084317;28;20034;-65
2023/08/15 05:46:36;;;;;;;11.85;1.95;;;;;;;-142.75;100.00;75824.31;5085894;28;20022;-65
2023/08/15 05:49:01;;;;;;;7.95;2.20;;;;;;;-142.75;100.00;75806.59;5082295;28;20059;-65
2023/08/15 05:51:27;;;;;;;12.48;3.13;;;;;;;-142.75;100.00;75818.41;5065764;28;20024;-65
2023/08/15 05:53:52;;;;;;;8.63;2.53;;;;;;;-142.75;100.00;75820.38;5065603;28;20621;-65
2023/08/15 05:56:17;;;;;;;5.55;1.70;;;;;;;-142.75;100.00;75814.47;5064137;28;20472;-65
2023/08/15 05:58:43;;;;;;;6.50;2.33;;;;;;;-142.75;100.00;75816.44;5065535;28;20013;-65
2023/08/15 06:01:08;;;;;;;12.38;2.15;;;;;;;-142.75;100.00;75820.38;5065906;28;20531;-65
2023/08/15 06:03:33;;;;;;;9.57;2.53;;;;;;;-142.75;100.00;75828.25;5065832;28;20028;-66
2023/08/15 06:05:59;;;;;;;8.50;2.67;;;;;;;-142.75;100.00;75830.22;5065715;28;20112;-65
2023/08/15 06:08:24;;;;;;;5.82;2.42;;;;;;;-142.75;100.00;75822.34;5065591;28;20403;-65
2023/08/15 06:10:49;;;;;;;6.85;2.05;;;;;;;-142.75;100.00;75836.13;5066013;28;20016;-66
2023/08/15 06:13:15;;;;;;;5.35;2.58;;;;;;;-142.75;100.00;75834.16;5071304;28;20483;-65
2023/08/15 06:15:40;;;;;;;7.45;2.38;;;;;;;-142.75;100.00;75834.16;5085367;28;20440;-66
2023/08/15 06:18:05;;;;;;;13.20;2.55;;;;;;;-142.75;100.00;75838.09;5085566;28;20026;-66
2023/08/15 06:20:31;;;;;;;5.70;2.20;;;;;;;-142.75;100.00;75840.06;5085403;28;20026;-65
2023/08/15 06:22:56;;;;;;;8.50;2.13;;;;;;;-142.75;100.00;75842.03;5084922;28;20028;-65
2023/08/15 06:25:22;;;;;;;7.82;2.35;;;;;;;-142.75;100.00;75847.94;5084932;28;20034;-65
2023/08/15 06:27:47;;;;;;;8.70;2.78;;;;;;;-142.75;100.00;75849.91;5085053;28;20026;-65
2023/08/15 06:30:13;;;;;;;7.10;2.65;;;;;;;-142.75;100.00;75871.53;5085329;28;20077;-65
2023/08/15 06:32:38;;;;;;;7.30;2.40;;;;;;;-142.75;100.00;75871.53;5086290;28;20131;-65
2023/08/15 06:35:05;;;;;;;7.88;2.42;;;;;;;-142.75;100.00;75879.41;5085127;28;20028;-65
2023/08/15 06:37:30;;;;;;;8.75;2.22;;;;;;;-142.75;100.00;75865.63;5085528;28;20476;-65
2023/08/15 06:39:56;;;;;;;7.03;2.35;;;;;;;-142.75;100.00;75836.13;5085442;28;20111;-65
2023/08/15 06:42:21;;;;;;;15.40;3.08;;;;;;;-142.75;100.00;75798.72;5085651;28;20032;-65
2023/08/15 06:44:46;;;;;;;5.90;2.22;;;;;;;-142.75;100.00;75775.09;5080649;28;20037;-65
2023/08/15 06:47:12;;;;;;;9.60;2.83;;;;;;;-142.75;100.00;75751.50;5064901;28;20115;-66
2023/08/15 06:49:37;;;;;;;13.68;3.25;;;;;;;-142.75;100.00;75743.63;5065105;28;20039;-65
2023/08/15 06:52:03;;;;;;;10.30;2.70;;;;;;;-142.75;100.00;75743.63;5065020;28;20492;-65
2023/08/15 06:54:29;;;;;;;9.52;3.00;;;;;;;-142.75;100.00;75712.13;5064503;28;20025;-65
2023/08/15 06:56:54;;;;;;;8.82;2.38;;;;;;;-142.75;100.00;75700.31;5063872;28;20626;-65
2023/08/15 06:59:23;;;;;;;10.70;3.22;;;;;;;-142.75;100.00;75706.22;5064641;28;20566;-66
2023/08/15 07:01:52;;;;;;;9.32;2.83;;;;;;;-142.75;100.00;75735.75;5084342;28;20024;-66
2023/08/15 07:04:18;;;;;;;11.65;2.78;;;;;;;-142.75;100.00;75723.94;5085282;28;20750;-66
2023/08/15 07:06:43;;;;;;;9.00;2.50;;;;;;;-142.75;100.00;75706.22;5084888;28;20111;-66
2023/08/15 07:09:10;;;;;;;7.03;2.75;;;;;;;-142.75;100.00;75712.13;5084659;28;20020;-65
2023/08/15 07:11:35;;;;;;;6.32;2.78;;;;;;;-142.75;100.00;75714.09;5085418;28;20036;-66
2023/08/15 07:14:01;;;;;;;7.93;2.20;;;;;;;-142.75;100.00;75684.56;5084544;28;20039;-66
2023/08/15 07:16:26;;;;;;;9.35;2.80;;;;;;;-142.75;100.00;75690.47;5083626;28;20039;-65
2023/08/15 07:18:52;;;;;;;6.78;2.45;;;;;;;-142.75;100.00;75692.44;5084789;28;20451;-65
2023/08/15 07:21:18;;;;;;;8.15;2.58;;;;;;;-142.75;100.00;75690.47;5084785;28;20063;-66
2023/08/15 07:23:43;;;;;;;10.20;3.25;;;;;;;-142.75;100.00;75698.34;5064631;28;20644;-65
2023/08/15 07:26:08;;;;;;;9.48;2.55;;;;;;;-142.75;100.00;75696.38;5069545;28;20082;-65
2023/08/15 07:28:34;;;;;;;6.53;2.17;;;;;;;-142.75;100.00;75704.25;5070977;28;20048;-66
2023/08/15 07:31:00;;;;;;;12.50;2.95;;;;;;;-142.75;100.00;75710.16;5070799;28;20498;-66
2023/08/15 07:33:25;;;;;;;7.80;2.97;;;;;;;-142.75;100.00;75729.84;5076923;28;20564;-66
2023/08/15 07:35:50;;;;;;;9.52;2.53;;;;;;;-142.75;100.00;75725.91;5076987;28;20048;-66
2023/08/15 07:38:16;;;;;;;7.38;3.00;;;;;;;-142.75;100.00;75737.72;5077275;28;20046;-65
2023/08/15 07:40:41;;;;;;;10.38;3.20;;;;;;;-142.75;100.00;75706.22;5077763;28;20055;-65
2023/08/15 07:43:07;;;;;;;8.32;2.90;;;;;;;-142.75;100.00;75720.00;5077423;28;20111;-65
2023/08/15 07:45:32;;;;;;;8.65;3.10;;;;;;;-142.75;100.00;75716.06;5075891;28;20074;-64
2023/08/15 07:47:58;;;;;;;11.73;3.72;;;;;;;-142.75;100.00;75712.13;5077594;28;20116;-64
2023/08/15 07:50:27;;;;;;;7.03;3.00;;;;;;;-142.75;100.00;75680.63;5078410;28;20024;-65
2023/08/15 07:52:59;;;;;;;10.35;2.88;;;;;;;-142.75;100.00;75672.78;5071631;28;20169;-64
2023/08/15 07:55:25;;;;;;;9.70;2.72;;;;;;;-142.75;100.00;75678.66;5073597;28;20400;-64
2023/08/15 07:57:51;;;;;;;7.32;2.45;;;;;;;-142.75;100.00;75690.47;5071599;28;20020;-64
2023/08/15 08:00:17;;;;;;;8.32;2.67;;;;;;;-142.75;100.00;75676.69;5069954;28;20024;-65
2023/08/15 08:02:44;;;;;;;8.00;2.80;;;;;;;-142.75;100.00;75666.88;5072916;28;20028;-64
2023/08/15 08:05:10;;;;;;;5.95;2.80;;;;;;;-142.75;100.00;75706.22;5072408;28;20024;-64
2023/08/15 08:07:36;;;;;;;7.35;2.25;;;;;;;-142.75;100.00;75720.00;5079233;28;20517;-64
2023/08/15 08:10:03;;;;;;;7.05;2.30;;;;;;;-142.75;100.00;75751.50;5080473;28;20028;-64
2023/08/15 08:12:29;;;;;;;9.07;2.67;;;;;;;-142.75;100.00;75725.91;5086561;28;20390;-63
2023/08/15 08:14:54;;;;;;;9.75;2.45;;;;;;;-142.75;100.00;75731.81;5083771;28;20411;-64
2023/08/15 08:17:21;;;;;;;7.63;2.78;;;;;;;-142.75;100.00;75723.94;5084290;28;20020;-64
2023/08/15 08:19:47;;;;;;;7.38;2.92;;;;;;;-142.75;100.00;75718.03;5083314;28;20024;-64
2023/08/15 08:22:12;;;;;;;7.90;3.38;;;;;;;-142.75;100.00;75741.66;5079659;28;20159;-65
2023/08/15 08:24:37;;;;;;;8.13;3.70;;;;;;;-142.75;100.00;75751.50;5081609;28;20020;-64
2023/08/15 08:27:04;;;;;;;5.63;3.13;;;;;;;-142.75;100.00;75739.69;5076099;28;20016;-64
2023/08/15 08:29:29;;;;;;;6.38;2.97;;;;;;;-142.75;100.00;75755.44;5075411;28;20020;-64
2023/08/15 08:31:55;;;;;;;5.20;2.60;;;;;;;-142.75;100.00;75775.09;5082528;28;20027;-63
2023/08/15 08:34:21;;;;;;;7.80;2.90;;;;;;;-142.75;100.00;75779.03;5082342;28;20038;-64
2023/08/15 08:36:46;;;;;;;7.82;2.70;;;;;;;-142.75;100.00;75777.06;5071560;28;20070;-64
2023/08/15 08:39:12;;;;;;;8.48;2.97;;;;;;;-142.75;100.00;75775.09;5069642;28;20032;-64
2023/08/15 08:41:38;;;;;;;7.25;2.78;;;;;;;-142.75;100.00;75769.19;5069926;28;20024;-64
2023/08/15 08:44:04;;;;;;;6.28;3.15;;;;;;;-142.75;100.00;75777.06;5069438;28;20028;-63
2023/08/15 08:46:30;;;;;;;9.90;3.03;;;;;;;-142.75;100.00;75779.03;5069635;28;20035;-64
2023/08/15 08:48:59;;;;;;;8.65;3.17;;;;;;;-142.75;100.00;75786.91;5069134;28;20028;-64
2023/08/15 08:51:26;;;;;;;7.00;2.80;;;;;;;-142.75;100.00;75781.00;5071766;28;20494;-64
2023/08/15 08:53:52;;;;;;;9.55;2.90;;;;;;;-142.75;100.00;75790.84;5071432;28;20073;-64
2023/08/15 08:56:18;;;;;;;6.95;2.63;;;;;;;-142.75;100.00;75794.78;5073433;28;20024;-64
2023/08/15 08:58:51;;;;;;;8.82;2.53;;;;;;;-142.75;100.00;75794.78;5075351;28;20556;-64
2023/08/15 09:01:17;;;;;;;6.82;2.20;;;;;;;-142.75;100.00;75802.66;5080480;28;20028;-64
2023/08/15 09:03:43;;;;;;;6.88;2.40;;;;;;;-142.75;100.00;75826.28;5089332;28;20487;-64
2023/08/15 09:06:08;;;;;;;7.75;2.88;;;;;;;-142.75;100.00;75826.28;5076809;28;20108;-64
2023/08/15 09:08:34;;;;;;;9.32;2.72;;;;;;;-142.75;100.00;75838.09;5081026;28;20051;-64
2023/08/15 09:11:00;;;;;;;7.90;2.78;;;;;;;-142.75;100.00;75822.34;5080552;28;20059;-66
2023/08/15 09:13:26;;;;;;;6.47;2.50;;;;;;;-142.75;100.00;75810.53;5068131;28;20352;-64
2023/08/15 09:15:56;;;;;;;6.68;2.85;;;;;;;-142.75;100.00;75826.28;5068539;28;20020;-63
2023/08/15 09:18:24;;;;;;;8.48;2.65;;;;;;;-142.75;100.00;75790.84;5082111;28;20412;-64
2023/08/15 09:20:50;;;;;;;6.55;2.13;;;;;;;-142.75;100.00;75838.09;5072603;28;20031;-64
2023/08/15 09:23:16;;;;;;;7.85;2.58;;;;;;;-142.75;100.00;75836.13;5068346;28;20017;-64
2023/08/15 09:25:42;;;;;;;4.10;2.20;;;;;;;-142.75;100.00;75798.72;5068489;28;20526;-61
2023/08/15 09:28:07;;;;;;;6.53;1.80;;;;;;;-142.75;100.00;75771.16;5073269;28;20020;-65
2023/08/15 09:30:33;;;;;;;5.53;1.63;;;;;;;-142.75;100.00;75784.94;5073988;28;20025;-65
2023/08/15 09:33:02;;;;;;;6.75;1.48;;;;;;;-142.75;100.00;75775.09;5073957;28;20524;-66
2023/08/15 09:35:30;;;;;;;4.13;1.38;;;;;;;-142.75;100.00;75784.94;5071248;28;20439;-65
2023/08/15 09:37:56;;;;;;;6.20;1.75;;;;;;;-142.75;100.00;75788.88;5072293;28;20111;-65
2023/08/15 09:40:25;;;;;;;5.63;2.13;;;;;;;-142.75;100.00;75802.66;5074420;28;20040;-65
2023/08/15 09:42:52;;;;;;;4.60;1.63;;;;;;;-142.75;100.00;75842.03;5079274;28;20030;-65
2023/08/15 09:45:18;;;;;;;9.88;1.45;;;;;;;-142.75;100.00;75822.34;5075877;28;20036;-65
2023/08/15 09:47:44;;;;;;;3.88;1.58;;;;;;;-142.75;100.00;75806.59;5072649;28;20028;-65
2023/08/15 09:50:14;;;;;;;4.88;1.23;;;;;;;-142.75;100.00;75802.66;5071208;28;20086;-65
2023/08/15 09:52:42;;;;;;;3.05;1.48;;;;;;;-142.75;100.00;75798.72;5073124;28;20020;-65
2023/08/15 09:55:12;;;;;;;4.35;1.50;;;;;;;-142.75;100.00;75786.91;5073588;28;20475;-66
2023/08/15 09:57:38;;;;;;;3.85;1.35;;;;;;;-142.75;100.00;75769.19;5075666;28;20024;-65
2023/08/15 10:00:12;;;;;;;4.20;1.40;;;;;;;-142.75;100.00;75769.19;5068630;28;20055;-66
2023/08/15 10:02:43;;;;;;;2.70;1.27;;;;;;;-142.75;100.00;75790.84;5071591;28;20031;-66
2023/08/15 10:05:11;;;;;;;5.70;1.15;;;;;;;-142.75;100.00;75784.94;5068243;28;20020;-64
2023/08/15 10:07:37;;;;;;;6.82;1.25;;;;;;;-142.75;100.00;75826.28;5070915;28;20154;-65
2023/08/15 10:10:04;;;;;;;3.58;1.00;;;;;;;-142.75;100.00;75836.13;5074715;28;20034;-65
2023/08/15 10:12:30;;;;;;;5.32;1.30;;;;;;;-142.75;100.00;75857.78;5075578;28;20031;-65
2023/08/15 10:14:58;;;;;;;1.95;0.90;;;;;;;-142.75;100.00;75842.03;5066885;28;20662;-65
2023/08/15 10:17:26;;;;;;;4.88;1.05;;;;;;;-142.75;100.00;75826.28;5066022;28;20066;-65
2023/08/15 10:19:54;;;;;;;3.70;0.95;;;;;;;-142.75;100.00;75818.41;5066359;28;20453;-65
2023/08/15 10:22:19;;;;;;;4.60;0.95;;;;;;;-142.75;100.00;75822.34;5067195;28;20111;-65
2023/08/15 10:24:45;;;;;;;3.40;1.02;;;;;;;-142.75;100.00;75822.34;5066262;28;20479;-65
2023/08/15 10:27:12;;;;;;;5.47;1.10;;;;;;;-142.75;100.00;75808.56;5068567;28;20024;-65
2023/08/15 10:29:58;;;;;;;1.10;0.55;;;;;;;-142.75;100.00;75826.28;5066935;28;20048;-66
2023/08/15 10:32:25;;;;;;;3.22;0.63;;;;;;;-142.75;100.00;75859.72;5070302;28;20111;-65
2023/08/15 10:35:02;;;;;;;1.92;0.60;;;;;;;-142.75;100.00;75830.22;5068675;28;20024;-65
2023/08/15 10:37:34;;;;;;;2.13;0.60;;;;;;;-142.75;100.00;75796.75;5067650;28;20025;-65
2023/08/15 10:40:08;;;;;;;3.00;0.70;;;;;;;-142.75;100.00;75806.59;5067726;28;20099;-65
2023/08/15 10:43:01;;;;;;;2.08;1.13;;;;;;;-142.75;100.00;75796.75;5067998;28;20020;-65
2023/08/15 10:45:29;;;;;;;2.22;1.30;;;;;;;-142.75;100.00;75775.09;5067229;28;20498;-65
2023/08/15 10:47:55;;;;;;;4.18;1.52;;;;;;;-142.75;100.00;75777.06;5067835;28;20062;-66
2023/08/15 10:50:22;;;;;;;3.75;2.08;;;;;;;-142.75;100.00;75751.50;5067843;28;20028;-65
2023/08/15 10:53:01;;;;;;;4.25;2.47;;;;;;;-142.75;100.00;75688.50;5067659;28;20527;-66
2023/08/15 10:55:28;;;;;;;6.53;2.78;;;;;;;-142.75;100.00;75647.19;5067367;28;20491;-66
2023/08/15 10:57:56;;;;;;;3.60;2.90;;;;;;;-142.75;100.00;75657.03;5070038;28;20044;-66
2023/08/15 11:00:23;;;;;;;3.88;2.35;;;;;;;-142.75;100.00;75660.97;5080826;28;20024;-66
2023/08/15 11:02:53;;;;;;;2.22;1.63;;;;;;;-142.75;100.00;75668.84;5076899;28;20028;-67
2023/08/15 11:05:41;;;;;;;1.45;1.05;;;;;;;-142.75;100.00;75694.41;5075963;28;20032;-66